Capetan Vassilis — C6S2085 — position and weather

sailwx.info

Track history (hours):
 
Tides and Currents Weather Stations Pressure Air Temp Water Temp Dewpoint Dewpoint Depression Visibility Wind Speed Wind Dir Waves Ship Positions

Capetan Vassilis

Last reported at 2017-Aug-27 03:11 UTC. Time now 2017-Sep-19 22:17 UTC.
Position N 25°56' W 015°57'.
Warning: this ship's position is 23 days out of date.

Length 191 m; draft 10.5 m.

Type: Cargo ship. MMSI: 311552000.

Date/timePositionNaut miles runAvg speedWind from/ knotsBaromVisibWave heightAir tempDewpointWater temp
2017-Aug-27 03:11N 25°56' W 015°57'412.2
2017-Aug-27 02:52N 25°60' W 015°56'2612.7
2017-Aug-27 00:47N 26°24' W 015°46'3013.6
2017-Aug-26 22:35N 26°52' W 015°33'113.4
2017-Aug-26 22:30N 26°53' W 015°32'1013.4
2017-Aug-26 21:46N 27°02' W 015°28'313.2
2017-Aug-26 21:30N 27°05' W 015°27'612.9
2017-Aug-26 21:00N 27°11' W 015°24'713.2
2017-Aug-26 20:30N 27°18' W 015°22'713.7
2017-Aug-26 20:00N 27°24' W 015°19'4113.1
2017-Aug-26 16:52N 28°05' W 015°21'3 0.4
2017-Aug-26 09:01N 28°07' W 015°24'0 0.0
2017-Aug-26 07:43N 28°07' W 015°24'1 0.6
2017-Aug-26 05:36N 28°07' W 015°23'1 5.1
2017-Aug-26 05:26N 28°08' W 015°22'1110.7
2017-Aug-26 04:22N 28°14' W 015°11'1212.1
2017-Aug-26 03:24N 28°21' W 015°01'712.1
2017-Aug-26 02:52N 28°25' W 014°55'11412.9
2017-Aug-25 18:05N 29°51' W 013°30'412.8
2017-Aug-25 17:49N 29°54' W 013°28'413.0
2017-Aug-25 17:30N 29°57' W 013°24'612.9
2017-Aug-25 17:00N 30°02' W 013°19'712.9
2017-Aug-25 16:30N 30°06' W 013°14'712.9
2017-Aug-25 15:59N 30°11' W 013°09'612.7
2017-Aug-25 15:29N 30°15' W 013°04'1113.0
2017-Aug-25 14:40N 30°23' W 012°55'912.9
2017-Aug-25 14:00N 30°29' W 012°48'712.7
2017-Aug-25 13:29N 30°34' W 012°43'612.5
2017-Aug-25 13:00N 30°38' W 012°38'612.8
2017-Aug-25 12:30N 30°43' W 012°33'7512.5
2017-Aug-25 06:28N 31°35' W 011°29'912.6
2017-Aug-25 05:45N 31°41' W 011°21'313.0
2017-Aug-25 05:30N 31°43' W 011°18'1112.7
2017-Aug-25 04:36N 31°51' W 011°09'312.8
2017-Aug-25 04:22N 31°53' W 011°06'612.9
2017-Aug-25 03:56N 31°57' W 011°01'513.0
2017-Aug-25 03:30N 32°01' W 010°57'713.2
2017-Aug-25 03:00N 32°06' W 010°51'713.1
2017-Aug-25 02:30N 32°11' W 010°46'713.0
2017-Aug-25 02:00N 32°15' W 010°40'713.1
2017-Aug-25 01:30N 32°20' W 010°35'713.0
2017-Aug-25 01:00N 32°24' W 010°29'713.0
2017-Aug-25 00:30N 32°29' W 010°24'613.0
2017-Aug-25 00:00N 32°34' W 010°19'713.0
2017-Aug-24 23:30N 32°38' W 010°13'713.2
2017-Aug-24 23:00N 32°43' W 010°08'713.0
2017-Aug-24 22:30N 32°47' W 010°02'713.3
2017-Aug-24 22:00N 32°52' W 009°56'713.6
2017-Aug-24 21:30N 32°56' W 009°50'713.2
2017-Aug-24 21:00N 33°01' W 009°44'613.2
2017-Aug-24 20:30N 33°05' W 009°39'713.3
2017-Aug-24 20:00N 33°10' W 009°33'813.1
2017-Aug-24 19:25N 33°14' W 009°25'513.0
2017-Aug-24 19:00N 33°15' W 009°19'713.1
2017-Aug-24 18:30N 33°17' W 009°11'713.5
2017-Aug-24 18:00N 33°19' W 009°04'713.4
2017-Aug-24 17:30N 33°21' W 008°56'713.3
2017-Aug-24 17:00N 33°23' W 008°48'713.3
2017-Aug-24 16:30N 33°25' W 008°41'1313.2
2017-Aug-24 15:30N 33°29' W 008°26'  
2017-Aug-22 02:31N 33°37' W 007°36'0 2.3
2017-Aug-22 02:30N 33°37' W 007°36'2 4.5
2017-Aug-22 01:57N 33°39' W 007°35'1 0.8
2017-Aug-22 00:13N 33°40' W 007°36'0 0.0
2017-Aug-21 23:58N 33°40' W 007°36'0 0.0
2017-Aug-21 23:28N 33°40' W 007°36'  
2017-Aug-18 02:32N 33°40' W 007°36'0 0.0
2017-Aug-17 18:01N 33°40' W 007°36'0 0.3
2017-Aug-17 17:58N 33°40' W 007°36'1110.2
2017-Aug-17 16:50N 33°48' W 007°46'513.2
2017-Aug-17 16:28N 33°52' W 007°50'913.3
2017-Aug-17 15:46N 33°59' W 007°57'413.9
2017-Aug-17 15:29N 34°02' W 008°00'913.9
2017-Aug-17 14:48N 34°09' W 008°08'413.8
2017-Aug-17 14:30N 34°12' W 008°11'713.7
2017-Aug-17 14:00N 34°17' W 008°16'713.7
2017-Aug-17 13:28N 34°23' W 008°22'713.6
2017-Aug-17 12:55N 34°28' W 008°28'713.6
2017-Aug-17 12:25N 34°34' W 008°34'613.7
2017-Aug-17 12:00N 34°38' W 008°38'1313.2
2017-Aug-17 11:03N 34°47' W 008°49'313.1
2017-Aug-17 10:48N 34°50' W 008°51'413.1
2017-Aug-17 10:28N 34°53' W 008°55'1113.1
2017-Aug-17 09:37N 35°01' W 009°04'113.1
2017-Aug-17 09:30N 35°02' W 009°05'613.0
2017-Aug-17 09:00N 35°07' W 009°10'3613.2
2017-Aug-17 06:16N 35°42' W 009°24'3113.2
2017-Aug-17 03:53N 36°12' W 009°35'  
Track history (hours):
 
Tides and Currents Weather Stations Pressure Air Temp Water Temp Dewpoint Dewpoint Depression Visibility Wind Speed Wind Dir Waves Ship Positions

Capetan Vassilis

Last reported at 2017-Aug-27 03:11 UTC. Time now 2017-Sep-19 22:17 UTC.
Position N 25°56' W 015°57'.
Warning: this ship's position is 23 days out of date.

Length 191 m; draft 10.5 m.

Type: Cargo ship. MMSI: 311552000.

Date/timePositionNaut miles runAvg speedWind from/ knotsBaromVisibWave heightAir tempDewpointWater temp
2017-Aug-27 03:11N 25°56' W 015°57'412.2
2017-Aug-27 02:52N 25°60' W 015°56'2612.7
2017-Aug-27 00:47N 26°24' W 015°46'3013.6
2017-Aug-26 22:35N 26°52' W 015°33'113.4
2017-Aug-26 22:30N 26°53' W 015°32'1013.4
2017-Aug-26 21:46N 27°02' W 015°28'313.2
2017-Aug-26 21:30N 27°05' W 015°27'612.9
2017-Aug-26 21:00N 27°11' W 015°24'713.2
2017-Aug-26 20:30N 27°18' W 015°22'713.7
2017-Aug-26 20:00N 27°24' W 015°19'4113.1
2017-Aug-26 16:52N 28°05' W 015°21'3 0.4
2017-Aug-26 09:01N 28°07' W 015°24'0 0.0
2017-Aug-26 07:43N 28°07' W 015°24'1 0.6
2017-Aug-26 05:36N 28°07' W 015°23'1 5.1
2017-Aug-26 05:26N 28°08' W 015°22'1110.7
2017-Aug-26 04:22N 28°14' W 015°11'1212.1
2017-Aug-26 03:24N 28°21' W 015°01'712.1
2017-Aug-26 02:52N 28°25' W 014°55'11412.9
2017-Aug-25 18:05N 29°51' W 013°30'412.8
2017-Aug-25 17:49N 29°54' W 013°28'413.0
2017-Aug-25 17:30N 29°57' W 013°24'612.9
2017-Aug-25 17:00N 30°02' W 013°19'712.9
2017-Aug-25 16:30N 30°06' W 013°14'712.9
2017-Aug-25 15:59N 30°11' W 013°09'612.7
2017-Aug-25 15:29N 30°15' W 013°04'1113.0
2017-Aug-25 14:40N 30°23' W 012°55'912.9
2017-Aug-25 14:00N 30°29' W 012°48'712.7
2017-Aug-25 13:29N 30°34' W 012°43'612.5
2017-Aug-25 13:00N 30°38' W 012°38'612.8
2017-Aug-25 12:30N 30°43' W 012°33'7512.5
2017-Aug-25 06:28N 31°35' W 011°29'912.6
2017-Aug-25 05:45N 31°41' W 011°21'313.0
2017-Aug-25 05:30N 31°43' W 011°18'1112.7
2017-Aug-25 04:36N 31°51' W 011°09'312.8
2017-Aug-25 04:22N 31°53' W 011°06'612.9
2017-Aug-25 03:56N 31°57' W 011°01'513.0
2017-Aug-25 03:30N 32°01' W 010°57'713.2
2017-Aug-25 03:00N 32°06' W 010°51'713.1
2017-Aug-25 02:30N 32°11' W 010°46'713.0
2017-Aug-25 02:00N 32°15' W 010°40'713.1
2017-Aug-25 01:30N 32°20' W 010°35'713.0
2017-Aug-25 01:00N 32°24' W 010°29'713.0
2017-Aug-25 00:30N 32°29' W 010°24'613.0
2017-Aug-25 00:00N 32°34' W 010°19'713.0
2017-Aug-24 23:30N 32°38' W 010°13'713.2
2017-Aug-24 23:00N 32°43' W 010°08'713.0
2017-Aug-24 22:30N 32°47' W 010°02'713.3
2017-Aug-24 22:00N 32°52' W 009°56'713.6
2017-Aug-24 21:30N 32°56' W 009°50'713.2
2017-Aug-24 21:00N 33°01' W 009°44'613.2
2017-Aug-24 20:30N 33°05' W 009°39'713.3
2017-Aug-24 20:00N 33°10' W 009°33'813.1
2017-Aug-24 19:25N 33°14' W 009°25'513.0
2017-Aug-24 19:00N 33°15' W 009°19'713.1
2017-Aug-24 18:30N 33°17' W 009°11'713.5
2017-Aug-24 18:00N 33°19' W 009°04'713.4
2017-Aug-24 17:30N 33°21' W 008°56'713.3
2017-Aug-24 17:00N 33°23' W 008°48'713.3
2017-Aug-24 16:30N 33°25' W 008°41'1313.2
2017-Aug-24 15:30N 33°29' W 008°26'  
2017-Aug-22 02:31N 33°37' W 007°36'0 2.3
2017-Aug-22 02:30N 33°37' W 007°36'2 4.5
2017-Aug-22 01:57N 33°39' W 007°35'1 0.8
2017-Aug-22 00:13N 33°40' W 007°36'0 0.0
2017-Aug-21 23:58N 33°40' W 007°36'0 0.0
2017-Aug-21 23:28N 33°40' W 007°36'  
2017-Aug-18 02:32N 33°40' W 007°36'0 0.0
2017-Aug-17 18:01N 33°40' W 007°36'0 0.3
2017-Aug-17 17:58N 33°40' W 007°36'1110.2
2017-Aug-17 16:50N 33°48' W 007°46'513.2
2017-Aug-17 16:28N 33°52' W 007°50'913.3
2017-Aug-17 15:46N 33°59' W 007°57'413.9
2017-Aug-17 15:29N 34°02' W 008°00'913.9
2017-Aug-17 14:48N 34°09' W 008°08'413.8
2017-Aug-17 14:30N 34°12' W 008°11'713.7
2017-Aug-17 14:00N 34°17' W 008°16'713.7
2017-Aug-17 13:28N 34°23' W 008°22'713.6
2017-Aug-17 12:55N 34°28' W 008°28'713.6
2017-Aug-17 12:25N 34°34' W 008°34'613.7
2017-Aug-17 12:00N 34°38' W 008°38'1313.2
2017-Aug-17 11:03N 34°47' W 008°49'313.1
2017-Aug-17 10:48N 34°50' W 008°51'413.1
2017-Aug-17 10:28N 34°53' W 008°55'1113.1
2017-Aug-17 09:37N 35°01' W 009°04'113.1
2017-Aug-17 09:30N 35°02' W 009°05'613.0
2017-Aug-17 09:00N 35°07' W 009°10'3613.2
2017-Aug-17 06:16N 35°42' W 009°24'3113.2
2017-Aug-17 03:53N 36°12' W 009°35'  

Dump ship's entire track history